sensor_id;sensor_type;location;lat;lon;timestamp;pressure;altitude;pressure_sealevel;temperature;humidity
18900;BME280;9582;52.018;6.306;2023-04-28T00:00:35;101118.06;;;7.86;100.00
18900;BME280;9582;52.018;6.306;2023-04-28T00:03:01;101107.69;;;7.84;100.00
18900;BME280;9582;52.018;6.306;2023-04-28T00:05:28;101100.78;;;7.82;100.00
18900;BME280;9582;52.018;6.306;2023-04-28T00:07:55;101103.38;;;7.83;100.00
18900;BME280;9582;52.018;6.306;2023-04-28T00:10:21;101085.19;;;7.82;100.00
18900;BME280;9582;52.018;6.306;2023-04-28T00:12:48;101080.84;;;7.82;100.00
18900;BME280;9582;52.018;6.306;2023-04-28T00:15:15;101078.19;;;7.84;100.00
18900;BME280;9582;52.018;6.306;2023-04-28T00:17:42;101073.03;;;7.82;100.00
18900;BME280;9582;52.018;6.306;2023-04-28T00:20:10;101078.22;;;7.82;100.00
18900;BME280;9582;52.018;6.306;2023-04-28T00:22:36;101073.97;;;7.80;100.00
18900;BME280;9582;52.018;6.306;2023-04-28T00:25:04;101075.72;;;7.79;100.00
18900;BME280;9582;52.018;6.306;2023-04-28T00:27:31;101078.31;;;7.79;100.00
18900;BME280;9582;52.018;6.306;2023-04-28T00:29:58;101081.13;;;7.73;100.00
18900;BME280;9582;52.018;6.306;2023-04-28T00:32:26;101068.13;;;7.72;100.00
18900;BME280;9582;52.018;6.306;2023-04-28T00:34:52;101068.28;;;7.67;100.00
18900;BME280;9582;52.018;6.306;2023-04-28T00:37:19;101057.88;;;7.67;100.00
18900;BME280;9582;52.018;6.306;2023-04-28T00:39:45;101048.41;;;7.65;100.00
18900;BME280;9582;52.018;6.306;2023-04-28T00:42:12;101044.03;;;7.65;100.00
18900;BME280;9582;52.018;6.306;2023-04-28T00:44:38;101038.09;;;7.62;100.00
18900;BME280;9582;52.018;6.306;2023-04-28T00:47:07;101039.03;;;7.59;100.00
18900;BME280;9582;52.018;6.306;2023-04-28T00:49:36;101039.06;;;7.57;100.00
18900;BME280;9582;52.018;6.306;2023-04-28T00:52:04;101040.72;;;7.60;100.00
18900;BME280;9582;52.018;6.306;2023-04-28T00:54:32;101041.66;;;7.57;100.00
18900;BME280;9582;52.018;6.306;2023-04-28T00:56:58;101025.19;;;7.57;100.00
18900;BME280;9582;52.018;6.306;2023-04-28T00:59:27;101031.31;;;7.56;100.00
18900;BME280;9582;52.018;6.306;2023-04-28T01:01:53;101020.91;;;7.56;100.00
18900;BME280;9582;52.018;6.306;2023-04-28T01:04:20;101017.53;;;7.52;100.00
18900;BME280;9582;52.018;6.306;2023-04-28T01:06:51;101014.91;;;7.52;100.00
18900;BME280;9582;52.018;6.306;2023-04-28T01:09:18;101015.81;;;7.51;100.00
18900;BME280;9582;52.018;6.306;2023-04-28T01:11:46;101010.69;;;7.48;100.00
18900;BME280;9582;52.018;6.306;2023-04-28T01:14:32;100999.44;;;7.48;100.00
18900;BME280;9582;52.018;6.306;2023-04-28T01:16:58;100996.81;;;7.48;100.00
18900;BME280;9582;52.018;6.306;2023-04-28T01:19:25;100994.28;;;7.46;100.00
18900;BME280;9582;52.018;6.306;2023-04-28T01:21:53;100996.03;;;7.46;100.00
18900;BME280;9582;52.018;6.306;2023-04-28T01:24:23;100992.47;;;7.48;100.00
18900;BME280;9582;52.018;6.306;2023-04-28T01:26:49;100985.59;;;7.47;100.00
18900;BME280;9582;52.018;6.306;2023-04-28T01:29:16;100979.47;;;7.48;100.00
18900;BME280;9582;52.018;6.306;2023-04-28T01:31:42;100977.72;;;7.49;100.00
18900;BME280;9582;52.018;6.306;2023-04-28T01:34:09;100971.72;;;7.47;100.00
18900;BME280;9582;52.018;6.306;2023-04-28T01:36:36;100966.53;;;7.47;100.00
18900;BME280;9582;52.018;6.306;2023-04-28T01:39:02;100957.88;;;7.46;100.00
18900;BME280;9582;52.018;6.306;2023-04-28T01:41:30;100951.78;;;7.47;100.00
18900;BME280;9582;52.018;6.306;2023-04-28T01:43:58;100949.09;;;7.49;100.00
18900;BME280;9582;52.018;6.306;2023-04-28T01:46:25;100951.72;;;7.49;100.00
18900;BME280;9582;52.018;6.306;2023-04-28T01:48:51;100951.72;;;7.49;100.00
18900;BME280;9582;52.018;6.306;2023-04-28T01:51:18;100948.22;;;7.50;100.00
18900;BME280;9582;52.018;6.306;2023-04-28T01:53:44;100939.59;;;7.48;100.00
18900;BME280;9582;52.018;6.306;2023-04-28T01:56:12;100935.34;;;7.45;100.00
18900;BME280;9582;52.018;6.306;2023-04-28T01:58:41;100924.09;;;7.45;100.00
18900;BME280;9582;52.018;6.306;2023-04-28T02:01:08;100913.78;;;7.42;100.00
18900;BME280;9582;52.018;6.306;2023-04-28T02:03:35;100900.91;;;7.37;100.00
18900;BME280;9582;52.018;6.306;2023-04-28T02:06:02;100876.84;;;7.31;100.00
18900;BME280;9582;52.018;6.306;2023-04-28T02:08:29;100863.06;;;7.27;100.00
18900;BME280;9582;52.018;6.306;2023-04-28T02:10:56;100851.91;;;7.24;100.00
18900;BME280;9582;52.018;6.306;2023-04-28T02:13:22;100834.59;;;7.23;100.00
18900;BME280;9582;52.018;6.306;2023-04-28T02:15:50;100823.38;;;7.21;100.00
18900;BME280;9582;52.018;6.306;2023-04-28T02:18:19;100807.84;;;7.19;100.00
18900;BME280;9582;52.018;6.306;2023-04-28T02:20:46;100783.63;;;7.17;100.00
18900;BME280;9582;52.018;6.306;2023-04-28T02:23:12;100767.19;;;7.17;100.00
18900;BME280;9582;52.018;6.306;2023-04-28T02:25:38;100746.44;;;7.15;100.00
18900;BME280;9582;52.018;6.306;2023-04-28T02:28:05;100722.13;;;7.16;100.00
18900;BME280;9582;52.018;6.306;2023-04-28T02:30:33;100696.25;;;7.12;100.00
18900;BME280;9582;52.018;6.306;2023-04-28T02:33:01;100686.81;;;7.09;100.00
18900;BME280;9582;52.018;6.306;2023-04-28T02:35:27;100673.03;;;7.07;100.00
18900;BME280;9582;52.018;6.306;2023-04-28T02:37:54;100653.13;;;7.06;100.00
18900;BME280;9582;52.018;6.306;2023-04-28T02:40:20;100652.25;;;7.06;100.00
18900;BME280;9582;52.018;6.306;2023-04-28T02:42:47;100636.81;;;7.03;100.00
18900;BME280;9582;52.018;6.306;2023-04-28T02:45:14;100611.78;;;6.98;100.00
18900;BME280;9582;52.018;6.306;2023-04-28T02:47:40;100597.16;;;6.96;100.00
18900;BME280;9582;52.018;6.306;2023-04-28T02:50:09;100586.78;;;6.94;100.00
18900;BME280;9582;52.018;6.306;2023-04-28T02:52:35;100564.31;;;6.93;100.00
18900;BME280;9582;52.018;6.306;2023-04-28T02:55:02;100533.13;;;6.93;100.00
18900;BME280;9582;52.018;6.306;2023-04-28T02:57:29;100521.00;;;6.94;100.00
18900;BME280;9582;52.018;6.306;2023-04-28T02:59:56;100505.38;;;6.94;100.00
18900;BME280;9582;52.018;6.306;2023-04-28T03:02:25;100494.94;;;6.95;100.00
18900;BME280;9582;52.018;6.306;2023-04-28T03:04:51;100482.78;;;6.96;100.00
18900;BME280;9582;52.018;6.306;2023-04-28T03:07:19;100482.69;;;6.99;100.00
18900;BME280;9582;52.018;6.306;2023-04-28T03:09:45;100479.16;;;7.00;100.00
18900;BME280;9582;52.018;6.306;2023-04-28T03:12:12;100485.19;;;7.02;100.00
18900;BME280;9582;52.018;6.306;2023-04-28T03:14:39;100479.06;;;7.03;100.00
18900;BME280;9582;52.018;6.306;2023-04-28T03:17:05;100472.06;;;7.05;100.00
18900;BME280;9582;52.018;6.306;2023-04-28T03:19:32;100468.53;;;7.06;100.00
18900;BME280;9582;52.018;6.306;2023-04-28T03:21:58;100467.53;;;7.10;100.00
18900;BME280;9582;52.018;6.306;2023-04-28T03:24:26;100477.78;;;7.15;100.00
18900;BME280;9582;52.018;6.306;2023-04-28T03:26:53;100476.88;;;7.16;100.00
18900;BME280;9582;52.018;6.306;2023-04-28T03:29:19;100492.38;;;7.19;100.00
18900;BME280;9582;52.018;6.306;2023-04-28T03:31:48;100497.50;;;7.20;100.00
18900;BME280;9582;52.018;6.306;2023-04-28T03:34:15;100499.13;;;7.23;100.00
18900;BME280;9582;52.018;6.306;2023-04-28T03:36:41;100495.59;;;7.25;100.00
18900;BME280;9582;52.018;6.306;2023-04-28T03:39:19;100498.22;;;7.25;100.00
18900;BME280;9582;52.018;6.306;2023-04-28T03:41:47;100502.44;;;7.28;100.00
18900;BME280;9582;52.018;6.306;2023-04-28T03:44:32;100500.66;;;7.28;100.00
18900;BME280;9582;52.018;6.306;2023-04-28T03:46:58;100499.84;;;7.28;100.00
18900;BME280;9582;52.018;6.306;2023-04-28T03:49:25;100504.97;;;7.29;100.00
18900;BME280;9582;52.018;6.306;2023-04-28T03:51:52;100506.69;;;7.30;100.00
18900;BME280;9582;52.018;6.306;2023-04-28T03:54:19;100507.47;;;7.32;100.00
18900;BME280;9582;52.018;6.306;2023-04-28T03:56:47;100508.31;;;7.33;100.00
18900;BME280;9582;52.018;6.306;2023-04-28T03:59:14;100503.97;;;7.33;100.00
18900;BME280;9582;52.018;6.306;2023-04-28T04:01:41;100497.00;;;7.34;100.00
18900;BME280;9582;52.018;6.306;2023-04-28T04:04:09;100502.16;;;7.35;100.00
18900;BME280;9582;52.018;6.306;2023-04-28T04:06:36;100493.47;;;7.36;100.00
18900;BME280;9582;52.018;6.306;2023-04-28T04:09:02;100493.47;;;7.36;100.00
18900;BME280;9582;52.018;6.306;2023-04-28T04:11:31;100489.94;;;7.37;100.00
18900;BME280;9582;52.018;6.306;2023-04-28T04:13:59;100475.19;;;7.38;100.00
18900;BME280;9582;52.018;6.306;2023-04-28T04:16:25;100444.94;;;7.35;100.00
18900;BME280;9582;52.018;6.306;2023-04-28T04:18:54;100432.66;;;7.39;100.00
18900;BME280;9582;52.018;6.306;2023-04-28T04:21:26;100418.81;;;7.38;100.00
18900;BME280;9582;52.018;6.306;2023-04-28T04:23:53;100409.25;;;7.39;100.00
18900;BME280;9582;52.018;6.306;2023-04-28T04:26:20;100394.44;;;7.41;100.00
18900;BME280;9582;52.018;6.306;2023-04-28T04:28:48;100384.81;;;7.43;100.00
18900;BME280;9582;52.018;6.306;2023-04-28T04:31:16;100373.44;;;7.45;100.00
18900;BME280;9582;52.018;6.306;2023-04-28T04:33:45;100366.56;;;7.44;100.00
18900;BME280;9582;52.018;6.306;2023-04-28T04:36:11;100364.66;;;7.48;100.00
18900;BME280;9582;52.018;6.306;2023-04-28T04:38:38;100352.50;;;7.48;100.00
18900;BME280;9582;52.018;6.306;2023-04-28T04:41:14;100338.59;;;7.49;100.00
18900;BME280;9582;52.018;6.306;2023-04-28T04:43:41;100320.28;;;7.52;100.00
18900;BME280;9582;52.018;6.306;2023-04-28T04:46:07;100312.34;;;7.55;100.00
18900;BME280;9582;52.018;6.306;2023-04-28T04:48:35;100317.31;;;7.62;100.00
18900;BME280;9582;52.018;6.306;2023-04-28T04:51:02;100316.22;;;7.67;100.00
18900;BME280;9582;52.018;6.306;2023-04-28T04:53:28;100304.72;;;7.73;100.00
18900;BME280;9582;52.018;6.306;2023-04-28T04:55:55;100305.41;;;7.76;100.00
18900;BME280;9582;52.018;6.306;2023-04-28T04:58:22;100292.28;;;7.79;100.00
18900;BME280;9582;52.018;6.306;2023-04-28T05:01:07;100273.03;;;7.83;100.00
18900;BME280;9582;52.018;6.306;2023-04-28T05:03:36;100274.59;;;7.87;100.00
18900;BME280;9582;52.018;6.306;2023-04-28T05:06:03;100267.56;;;7.89;100.00
18900;BME280;9582;52.018;6.306;2023-04-28T05:08:42;100257.03;;;7.92;100.00
18900;BME280;9582;52.018;6.306;2023-04-28T05:11:09;100246.50;;;7.95;100.00
18900;BME280;9582;52.018;6.306;2023-04-28T05:13:37;100238.59;;;7.97;100.00
18900;BME280;9582;52.018;6.306;2023-04-28T05:16:05;100220.25;;;8.00;100.00
18900;BME280;9582;52.018;6.306;2023-04-28T05:18:49;100216.66;;;8.02;100.00
18900;BME280;9582;52.018;6.306;2023-04-28T05:21:16;100206.19;;;8.04;100.00
18900;BME280;9582;52.018;6.306;2023-04-28T05:23:42;100192.19;;;8.06;100.00
18900;BME280;9582;52.018;6.306;2023-04-28T05:26:09;100183.44;;;8.07;100.00
18900;BME280;9582;52.018;6.306;2023-04-28T05:28:35;100171.16;;;8.11;100.00
18900;BME280;9582;52.018;6.306;2023-04-28T05:31:02;100179.66;;;8.14;100.00
18900;BME280;9582;52.018;6.306;2023-04-28T05:33:30;100168.28;;;8.17;100.00
18900;BME280;9582;52.018;6.306;2023-04-28T05:35:58;100149.00;;;8.21;100.00
18900;BME280;9582;52.018;6.306;2023-04-28T05:38:25;100145.41;;;8.24;100.00
18900;BME280;9582;52.018;6.306;2023-04-28T05:40:53;100120.06;;;8.27;100.00
18900;BME280;9582;52.018;6.306;2023-04-28T05:43:19;100098.09;;;8.33;100.00
18900;BME280;9582;52.018;6.306;2023-04-28T05:45:47;100076.09;;;8.40;100.00
18900;BME280;9582;52.018;6.306;2023-04-28T05:48:13;100059.94;;;8.50;100.00
18900;BME280;9582;52.018;6.306;2023-04-28T05:50:40;100055.88;;;8.62;100.00
18900;BME280;9582;52.018;6.306;2023-04-28T05:53:09;100046.72;;;8.72;100.00
18900;BME280;9582;52.018;6.306;2023-04-28T05:55:36;100047.38;;;8.76;100.00
18900;BME280;9582;52.018;6.306;2023-04-28T05:58:03;100044.63;;;8.79;100.00
18900;BME280;9582;52.018;6.306;2023-04-28T06:00:31;100037.56;;;8.81;100.00
18900;BME280;9582;52.018;6.306;2023-04-28T06:02:58;100026.22;;;8.82;100.00
18900;BME280;9582;52.018;6.306;2023-04-28T06:05:25;100014.91;;;8.83;100.00
18900;BME280;9582;52.018;6.306;2023-04-28T06:07:53;99999.16;;;8.84;100.00
18900;BME280;9582;52.018;6.306;2023-04-28T06:10:22;99992.91;;;8.88;100.00
18900;BME280;9582;52.018;6.306;2023-04-28T06:12:48;99966.66;;;8.91;100.00
18900;BME280;9582;52.018;6.306;2023-04-28T06:15:15;99944.72;;;8.95;100.00
18900;BME280;9582;52.018;6.306;2023-04-28T06:17:42;99935.88;;;8.98;100.00
18900;BME280;9582;52.018;6.306;2023-04-28T06:20:09;99934.81;;;9.02;100.00
18900;BME280;9582;52.018;6.306;2023-04-28T06:22:38;99923.38;;;9.04;100.00
18900;BME280;9582;52.018;6.306;2023-04-28T06:25:06;99920.63;;;9.07;100.00
18900;BME280;9582;52.018;6.306;2023-04-28T06:27:39;99908.16;;;9.12;100.00
18900;BME280;9582;52.018;6.306;2023-04-28T06:30:06;99894.91;;;9.17;100.00
18900;BME280;9582;52.018;6.306;2023-04-28T06:32:33;99886.81;;;9.21;100.00
18900;BME280;9582;52.018;6.306;2023-04-28T06:35:01;99885.75;;;9.25;100.00
18900;BME280;9582;52.018;6.306;2023-04-28T06:37:27;99876.81;;;9.29;100.00
18900;BME280;9582;52.018;6.306;2023-04-28T06:39:54;99870.50;;;9.34;100.00
18900;BME280;9582;52.018;6.306;2023-04-28T06:42:20;99868.56;;;9.37;100.00
18900;BME280;9582;52.018;6.306;2023-04-28T06:44:57;99872.00;;;9.38;100.00
18900;BME280;9582;52.018;6.306;2023-04-28T06:47:26;99856.47;;;9.36;100.00
18900;BME280;9582;52.018;6.306;2023-04-28T06:49:52;99841.03;;;9.32;100.00
18900;BME280;9582;52.018;6.306;2023-04-28T06:52:19;99897.84;;;9.26;100.00
18900;BME280;9582;52.018;6.306;2023-04-28T06:54:46;99972.78;;;9.23;100.00
18900;BME280;9582;52.018;6.306;2023-04-28T06:57:13;100113.66;;;9.23;100.00
18900;BME280;9582;52.018;6.306;2023-04-28T06:59:40;100161.44;;;9.23;100.00
18900;BME280;9582;52.018;6.306;2023-04-28T07:02:09;100242.09;;;9.28;100.00
18900;BME280;9582;52.018;6.306;2023-04-28T07:04:36;100320.13;;;9.33;100.00
18900;BME280;9582;52.018;6.306;2023-04-28T07:07:02;100381.63;;;9.38;100.00
18900;BME280;9582;52.018;6.306;2023-04-28T07:09:32;100449.09;;;9.46;100.00
18900;BME280;9582;52.018;6.306;2023-04-28T07:11:58;100457.44;;;9.54;100.00
18900;BME280;9582;52.018;6.306;2023-04-28T07:14:25;100462.38;;;9.60;100.00
18900;BME280;9582;52.018;6.306;2023-04-28T07:16:51;100487.28;;;9.67;100.00
18900;BME280;9582;52.018;6.306;2023-04-28T07:19:19;100499.25;;;9.71;100.00
18900;BME280;9582;52.018;6.306;2023-04-28T07:21:46;100539.28;;;9.71;100.00
18900;BME280;9582;52.018;6.306;2023-04-28T07:24:12;100548.81;;;9.72;100.00
18900;BME280;9582;52.018;6.306;2023-04-28T07:26:39;100566.09;;;9.75;100.00
18900;BME280;9582;52.018;6.306;2023-04-28T07:29:05;100578.09;;;9.79;100.00
18900;BME280;9582;52.018;6.306;2023-04-28T07:31:33;100608.44;;;9.81;100.00
18900;BME280;9582;52.018;6.306;2023-04-28T07:33:59;100651.91;;;9.82;100.00
18900;BME280;9582;52.018;6.306;2023-04-28T07:36:27;100669.28;;;9.83;100.00
18900;BME280;9582;52.018;6.306;2023-04-28T07:38:54;100692.69;;;9.85;100.00
18900;BME280;9582;52.018;6.306;2023-04-28T07:41:20;100718.63;;;9.90;100.00
18900;BME280;9582;52.018;6.306;2023-04-28T07:43:48;100737.50;;;9.96;100.00
18900;BME280;9582;52.018;6.306;2023-04-28T07:46:14;100767.75;;;10.02;100.00
18900;BME280;9582;52.018;6.306;2023-04-28T07:48:41;100782.19;;;10.10;100.00
18900;BME280;9582;52.018;6.306;2023-04-28T07:51:07;100792.22;;;10.19;100.00
18900;BME280;9582;52.018;6.306;2023-04-28T07:53:35;100805.81;;;10.27;100.00
18900;BME280;9582;52.018;6.306;2023-04-28T07:56:02;100815.22;;;10.31;100.00
18900;BME280;9582;52.018;6.306;2023-04-28T07:58:29;100834.16;;;10.36;100.00
18900;BME280;9582;52.018;6.306;2023-04-28T08:00:56;100851.56;;;10.37;100.00
18900;BME280;9582;52.018;6.306;2023-04-28T08:03:22;100852.47;;;10.36;100.00
18900;BME280;9582;52.018;6.306;2023-04-28T08:05:49;100860.31;;;10.36;100.00
18900;BME280;9582;52.018;6.306;2023-04-28T08:08:16;100872.84;;;10.49;100.00
18900;BME280;9582;52.018;6.306;2023-04-28T08:10:43;100876.56;;;10.63;100.00
18900;BME280;9582;52.018;6.306;2023-04-28T08:13:10;100885.06;;;10.68;100.00
18900;BME280;9582;52.018;6.306;2023-04-28T08:15:37;100903.28;;;10.70;100.00
18900;BME280;9582;52.018;6.306;2023-04-28T08:18:03;100916.09;;;10.76;100.00
18900;BME280;9582;52.018;6.306;2023-04-28T08:20:30;100931.66;;;10.79;100.00
18900;BME280;9582;52.018;6.306;2023-04-28T08:22:56;100966.47;;;10.81;100.00
18900;BME280;9582;52.018;6.306;2023-04-28T08:25:23;101045.72;;;10.83;100.00
18900;BME280;9582;52.018;6.306;2023-04-28T08:27:51;101061.44;;;10.81;100.00
18900;BME280;9582;52.018;6.306;2023-04-28T08:30:20;101058.72;;;10.84;100.00
18900;BME280;9582;52.018;6.306;2023-04-28T08:32:46;101076.72;;;10.92;100.00
18900;BME280;9582;52.018;6.306;2023-04-28T08:35:13;101088.63;;;10.99;100.00
18900;BME280;9582;52.018;6.306;2023-04-28T08:37:40;101101.31;;;11.08;100.00
18900;BME280;9582;52.018;6.306;2023-04-28T08:40:07;101114.03;;;11.17;100.00
18900;BME280;9582;52.018;6.306;2023-04-28T08:42:35;101113.69;;;11.25;100.00
18900;BME280;9582;52.018;6.306;2023-04-28T08:45:04;101114.03;;;11.37;100.00
18900;BME280;9582;52.018;6.306;2023-04-28T08:47:33;101118.66;;;11.51;100.00
18900;BME280;9582;52.018;6.306;2023-04-28T08:50:02;101117.41;;;11.59;100.00
18900;BME280;9582;52.018;6.306;2023-04-28T08:52:30;101112.44;;;11.74;100.00
18900;BME280;9582;52.018;6.306;2023-04-28T08:54:57;101114.28;;;11.90;100.00
18900;BME280;9582;52.018;6.306;2023-04-28T08:57:25;101111.81;;;12.06;100.00
18900;BME280;9582;52.018;6.306;2023-04-28T08:59:52;101107.09;;;12.31;100.00
18900;BME280;9582;52.018;6.306;2023-04-28T09:02:20;101101.81;;;12.68;100.00
18900;BME280;9582;52.018;6.306;2023-04-28T09:04:47;101098.44;;;13.01;100.00
18900;BME280;9582;52.018;6.306;2023-04-28T09:07:13;101085.50;;;13.32;100.00
18900;BME280;9582;52.018;6.306;2023-04-28T09:09:40;101067.75;;;13.53;100.00
18900;BME280;9582;52.018;6.306;2023-04-28T09:12:06;101039.59;;;13.55;100.00
18900;BME280;9582;52.018;6.306;2023-04-28T09:14:34;100995.03;;;13.53;100.00
18900;BME280;9582;52.018;6.306;2023-04-28T09:17:01;100951.38;;;13.51;100.00
18900;BME280;9582;52.018;6.306;2023-04-28T09:19:33;100902.81;;;13.42;100.00
18900;BME280;9582;52.018;6.306;2023-04-28T09:22:00;100873.78;;;13.45;100.00
18900;BME280;9582;52.018;6.306;2023-04-28T09:24:29;100871.72;;;13.50;100.00
18900;BME280;9582;52.018;6.306;2023-04-28T09:26:56;100854.09;;;13.52;100.00
18900;BME280;9582;52.018;6.306;2023-04-28T09:29:22;100841.19;;;13.63;100.00
18900;BME280;9582;52.018;6.306;2023-04-28T09:31:49;100837.56;;;13.66;100.00
18900;BME280;9582;52.018;6.306;2023-04-28T09:34:16;100822.03;;;13.61;100.00
18900;BME280;9582;52.018;6.306;2023-04-28T09:36:43;100816.22;;;13.56;100.00
18900;BME280;9582;52.018;6.306;2023-04-28T09:39:10;100816.72;;;13.47;100.00
18900;BME280;9582;52.018;6.306;2023-04-28T09:41:37;100818.59;;;13.45;100.00
18900;BME280;9582;52.018;6.306;2023-04-28T09:44:15;100824.19;;;13.39;100.00
18900;BME280;9582;52.018;6.306;2023-04-28T09:46:44;100811.84;;;13.25;100.00
18900;BME280;9582;52.018;6.306;2023-04-28T09:49:14;100813.22;;;13.17;100.00
18900;BME280;9582;52.018;6.306;2023-04-28T09:51:40;100820.34;;;13.15;100.00
18900;BME280;9582;52.018;6.306;2023-04-28T09:54:08;100821.59;;;13.08;100.00
18900;BME280;9582;52.018;6.306;2023-04-28T09:56:36;100832.78;;;13.11;100.00
18900;BME280;9582;52.018;6.306;2023-04-28T09:59:03;100830.03;;;13.13;100.00
18900;BME280;9582;52.018;6.306;2023-04-28T10:01:36;100837.59;;;13.19;100.00
18900;BME280;9582;52.018;6.306;2023-04-28T10:04:03;100848.25;;;13.16;100.00
18900;BME280;9582;52.018;6.306;2023-04-28T10:06:32;100848.84;;;13.21;100.00
18900;BME280;9582;52.018;6.306;2023-04-28T10:09:00;100856.66;;;13.22;100.00
18900;BME280;9582;52.018;6.306;2023-04-28T10:11:28;100861.81;;;13.24;100.00
18900;BME280;9582;52.018;6.306;2023-04-28T10:13:55;100858.78;;;13.32;100.00
18900;BME280;9582;52.018;6.306;2023-04-28T10:16:22;100866.22;;;13.39;100.00
18900;BME280;9582;52.018;6.306;2023-04-28T10:18:49;100869.28;;;13.47;100.00
18900;BME280;9582;52.018;6.306;2023-04-28T10:21:17;100864.75;;;13.49;100.00
18900;BME280;9582;52.018;6.306;2023-04-28T10:24:03;100876.72;;;13.55;100.00
18900;BME280;9582;52.018;6.306;2023-04-28T10:27:04;100875.63;;;13.59;100.00
18900;BME280;9582;52.018;6.306;2023-04-28T10:29:32;100879.84;;;13.61;100.00
18900;BME280;9582;52.018;6.306;2023-04-28T10:32:29;100877.16;;;13.63;100.00
18900;BME280;9582;52.018;6.306;2023-04-28T10:38:03;100874.69;;;13.60;100.00
18900;BME280;9582;52.018;6.306;2023-04-28T10:40:30;100877.97;;;13.63;100.00
18900;BME280;9582;52.018;6.306;2023-04-28T10:42:58;100864.59;;;13.68;100.00
18900;BME280;9582;52.018;6.306;2023-04-28T10:45:59;100871.34;;;13.72;100.00
18900;BME280;9582;52.018;6.306;2023-04-28T10:51:30;100862.03;;;13.82;100.00
18900;BME280;9582;52.018;6.306;2023-04-28T10:54:18;100853.13;;;13.84;100.00
18900;BME280;9582;52.018;6.306;2023-04-28T10:57:16;100841.69;;;13.85;100.00
18900;BME280;9582;52.018;6.306;2023-04-28T10:59:44;100843.34;;;13.86;100.00
18900;BME280;9582;52.018;6.306;2023-04-28T11:02:39;100841.84;;;13.82;100.00
18900;BME280;9582;52.018;6.306;2023-04-28T11:05:15;100844.09;;;13.74;100.00
18900;BME280;9582;52.018;6.306;2023-04-28T11:11:22;100833.91;;;13.68;100.00
18900;BME280;9582;52.018;6.306;2023-04-28T11:13:50;100838.22;;;13.69;100.00
18900;BME280;9582;52.018;6.306;2023-04-28T11:16:20;100840.50;;;13.75;100.00
18900;BME280;9582;52.018;6.306;2023-04-28T11:18:58;100837.88;;;13.75;100.00
18900;BME280;9582;52.018;6.306;2023-04-28T11:21:29;100840.31;;;13.78;100.00
18900;BME280;9582;52.018;6.306;2023-04-28T11:23:57;100849.13;;;13.77;100.00
18900;BME280;9582;52.018;6.306;2023-04-28T11:26:24;100858.44;;;13.83;100.00
18900;BME280;9582;52.018;6.306;2023-04-28T11:28:52;100863.69;;;13.83;100.00
18900;BME280;9582;52.018;6.306;2023-04-28T11:31:22;100871.69;;;13.81;100.00
18900;BME280;9582;52.018;6.306;2023-04-28T11:33:55;100883.63;;;13.87;100.00
18900;BME280;9582;52.018;6.306;2023-04-28T11:36:29;100895.41;;;13.96;100.00
18900;BME280;9582;52.018;6.306;2023-04-28T11:38:57;100910.31;;;13.95;100.00
18900;BME280;9582;52.018;6.306;2023-04-28T11:41:24;100931.13;;;14.00;100.00
18900;BME280;9582;52.018;6.306;2023-04-28T11:43:51;100949.59;;;13.98;100.00
18900;BME280;9582;52.018;6.306;2023-04-28T11:46:18;101034.41;;;14.02;100.00
18900;BME280;9582;52.018;6.306;2023-04-28T11:48:47;101055.44;;;14.02;100.00
18900;BME280;9582;52.018;6.306;2023-04-28T11:51:35;101047.38;;;14.05;100.00
18900;BME280;9582;52.018;6.306;2023-04-28T11:54:03;101064.41;;;13.98;100.00
18900;BME280;9582;52.018;6.306;2023-04-28T11:56:35;101093.66;;;13.92;100.00
18900;BME280;9582;52.018;6.306;2023-04-28T11:59:04;101102.34;;;13.94;100.00
18900;BME280;9582;52.018;6.306;2023-04-28T12:01:33;101124.28;;;13.93;100.00
18900;BME280;9582;52.018;6.306;2023-04-28T12:04:03;101131.91;;;13.97;100.00
18900;BME280;9582;52.018;6.306;2023-04-28T12:06:29;101151.38;;;14.10;100.00
18900;BME280;9582;52.018;6.306;2023-04-28T12:08:56;101178.88;;;14.20;100.00
18900;BME280;9582;52.018;6.306;2023-04-28T12:11:28;101188.66;;;14.34;100.00
18900;BME280;9582;52.018;6.306;2023-04-28T12:14:02;101203.88;;;14.44;100.00
18900;BME280;9582;52.018;6.306;2023-04-28T12:16:36;101211.34;;;14.52;100.00
18900;BME280;9582;52.018;6.306;2023-04-28T12:19:05;101222.22;;;14.46;100.00
18900;BME280;9582;52.018;6.306;2023-04-28T12:21:35;101227.44;;;14.30;100.00
18900;BME280;9582;52.018;6.306;2023-04-28T12:24:12;101229.63;;;14.22;100.00
18900;BME280;9582;52.018;6.306;2023-04-28T12:26:39;101241.38;;;14.15;100.00
18900;BME280;9582;52.018;6.306;2023-04-28T12:29:06;101254.00;;;14.09;100.00
18900;BME280;9582;52.018;6.306;2023-04-28T12:31:46;101260.13;;;14.09;100.00
18900;BME280;9582;52.018;6.306;2023-04-28T12:34:14;101259.63;;;14.18;100.00
18900;BME280;9582;52.018;6.306;2023-04-28T12:36:41;101284.78;;;14.24;100.00
18900;BME280;9582;52.018;6.306;2023-04-28T12:39:12;101291.59;;;14.28;100.00
18900;BME280;9582;52.018;6.306;2023-04-28T12:41:40;101313.97;;;14.36;100.00
18900;BME280;9582;52.018;6.306;2023-04-28T12:44:07;101315.31;;;14.26;100.00
18900;BME280;9582;52.018;6.306;2023-04-28T12:46:34;101321.75;;;14.21;100.00
18900;BME280;9582;52.018;6.306;2023-04-28T12:49:01;101325.63;;;14.14;100.00
18900;BME280;9582;52.018;6.306;2023-04-28T12:51:29;101339.16;;;14.06;100.00
18900;BME280;9582;52.018;6.306;2023-04-28T12:53:56;101348.31;;;13.99;100.00
18900;BME280;9582;52.018;6.306;2023-04-28T12:56:22;101350.31;;;13.94;100.00
18900;BME280;9582;52.018;6.306;2023-04-28T12:58:48;101362.81;;;13.89;100.00
18900;BME280;9582;52.018;6.306;2023-04-28T13:01:15;101368.56;;;13.80;100.00
18900;BME280;9582;52.018;6.306;2023-04-28T13:03:42;101380.22;;;13.74;100.00
18900;BME280;9582;52.018;6.306;2023-04-28T13:06:09;101396.13;;;13.71;100.00
18900;BME280;9582;52.018;6.306;2023-04-28T13:08:37;101409.19;;;13.73;100.00
18900;BME280;9582;52.018;6.306;2023-04-28T13:11:03;101426.88;;;13.69;100.00
18900;BME280;9582;52.018;6.306;2023-04-28T13:13:30;101433.09;;;13.68;100.00